Time;durP1;ratioP1;P1;durP2;ratioP2;P2;SDS_P1;SDS_P2;PMS_P1;PMS_P2;Temp;Humidity;BMP_temperature;BMP_pressure;BME280_temperature;BME280_humidity;BME280_pressure;Samples;Min_cycle;Max_cycle;Signal;HPM_P1;HPM_P2
2021/10/12 00:01:20;;;;;;;13.95;3.47;;;;;;;;;;5053107;28;20385;-76
2021/10/12 00:03:45;;;;;;;13.77;4.60;;;;;;;;;;5052849;28;20029;-78
2021/10/12 00:06:11;;;;;;;16.48;3.53;;;;;;;;;;5052954;28;20025;-76
2021/10/12 00:08:36;;;;;;;13.70;3.78;;;;;;;;;;5052975;28;20036;-78
2021/10/12 00:11:02;;;;;;;16.75;4.00;;;;;;;;;;5052462;28;20120;-78
2021/10/12 00:13:27;;;;;;;20.33;3.65;;;;;;;;;;5052625;28;20029;-78
2021/10/12 00:15:52;;;;;;;15.15;3.40;;;;;;;;;;5052762;28;20025;-79
2021/10/12 00:18:18;;;;;;;10.95;4.00;;;;;;;;;;5052421;28;20374;-78
2021/10/12 00:20:43;;;;;;;14.60;3.63;;;;;;;;;;5052586;28;20077;-78
2021/10/12 00:23:08;;;;;;;22.25;4.90;;;;;;;;;;5052874;28;20032;-78
2021/10/12 00:25:34;;;;;;;15.57;3.65;;;;;;;;;;5055745;28;20037;-77
2021/10/12 00:27:59;;;;;;;20.67;3.50;;;;;;;;;;5056559;28;20028;-78
2021/10/12 00:30:25;;;;;;;13.00;3.70;;;;;;;;;;5056898;28;20108;-77
2021/10/12 00:32:50;;;;;;;18.33;3.75;;;;;;;;;;5056403;28;20075;-78
2021/10/12 00:35:15;;;;;;;13.77;3.38;;;;;;;;;;5056283;28;20394;-78
2021/10/12 00:37:40;;;;;;;13.85;3.60;;;;;;;;;;5056480;28;20025;-78
2021/10/12 00:40:06;;;;;;;19.52;3.53;;;;;;;;;;5056288;28;20033;-78
2021/10/12 00:42:31;;;;;;;13.00;3.30;;;;;;;;;;5056235;28;20013;-77
2021/10/12 00:44:57;;;;;;;15.00;3.53;;;;;;;;;;5056283;28;20028;-77
2021/10/12 00:47:22;;;;;;;12.00;3.28;;;;;;;;;;5056162;28;20412;-77
2021/10/12 00:49:47;;;;;;;15.02;3.00;;;;;;;;;;5055523;28;20110;-77
2021/10/12 00:52:13;;;;;;;11.80;3.58;;;;;;;;;;5056141;28;20048;-77
2021/10/12 00:54:38;;;;;;;13.65;3.15;;;;;;;;;;5056238;28;20076;-77
2021/10/12 00:57:03;;;;;;;8.70;3.30;;;;;;;;;;5056105;28;20048;-77
2021/10/12 00:59:29;;;;;;;12.82;3.33;;;;;;;;;;5056245;28;20107;-78
2021/10/12 01:01:54;;;;;;;12.23;3.28;;;;;;;;;;5055979;28;20025;-77
2021/10/12 01:04:19;;;;;;;8.43;2.92;;;;;;;;;;5056002;28;20016;-77
2021/10/12 01:06:45;;;;;;;14.75;3.35;;;;;;;;;;5055853;28;20033;-77
2021/10/12 01:09:10;;;;;;;14.45;2.95;;;;;;;;;;5055921;28;20538;-77
2021/10/12 01:11:35;;;;;;;9.98;3.55;;;;;;;;;;5055952;28;20082;-77
2021/10/12 01:14:01;;;;;;;12.73;3.13;;;;;;;;;;5056087;28;20029;-78
2021/10/12 01:16:27;;;;;;;12.35;3.53;;;;;;;;;;5055846;28;20032;-77
2021/10/12 01:18:56;;;;;;;11.73;3.15;;;;;;;;;;5055767;28;20005;-77
2021/10/12 01:21:22;;;;;;;19.08;3.20;;;;;;;;;;5055383;28;20045;-78
2021/10/12 01:23:47;;;;;;;14.35;4.10;;;;;;;;;;5055568;28;20049;-77
2021/10/12 01:26:12;;;;;;;11.23;3.10;;;;;;;;;;5055377;28;20033;-77
2021/10/12 01:28:38;;;;;;;10.35;3.08;;;;;;;;;;5054896;28;20033;-77
2021/10/12 01:31:03;;;;;;;17.23;3.70;;;;;;;;;;5055384;28;20044;-78
2021/10/12 01:33:28;;;;;;;22.83;4.43;;;;;;;;;;5055592;28;20020;-77
2021/10/12 01:35:53;;;;;;;13.48;3.83;;;;;;;;;;5055124;28;20049;-77
2021/10/12 01:38:19;;;;;;;16.65;3.50;;;;;;;;;;5055283;28;20043;-77
2021/10/12 01:40:44;;;;;;;12.00;3.22;;;;;;;;;;5055091;28;20028;-78
2021/10/12 01:43:10;;;;;;;15.25;3.22;;;;;;;;;;5055014;28;20029;-78
2021/10/12 01:45:37;;;;;;;18.33;3.50;;;;;;;;;;5054755;28;20044;-78
2021/10/12 01:48:03;;;;;;;15.00;3.72;;;;;;;;;;5055116;28;20460;-79
2021/10/12 01:50:28;;;;;;;11.18;2.75;;;;;;;;;;5054865;28;20053;-77
2021/10/12 01:52:54;;;;;;;6.95;2.88;;;;;;;;;;5054911;28;20044;-77
2021/10/12 01:55:21;;;;;;;15.40;3.15;;;;;;;;;;5053688;28;20044;-78
2021/10/12 01:57:47;;;;;;;7.78;3.08;;;;;;;;;;5054638;28;20028;-77
2021/10/12 02:00:12;;;;;;;14.70;2.92;;;;;;;;;;5054695;28;20504;-77
2021/10/12 02:02:37;;;;;;;17.42;3.63;;;;;;;;;;5054646;28;20132;-78
2021/10/12 02:05:04;;;;;;;14.48;3.15;;;;;;;;;;5053474;28;20091;-78
2021/10/12 02:07:29;;;;;;;13.40;3.35;;;;;;;;;;5054777;28;20036;-78
2021/10/12 02:09:54;;;;;;;12.27;3.30;;;;;;;;;;5054729;28;20079;-78
2021/10/12 02:12:19;;;;;;;11.27;3.63;;;;;;;;;;5054620;28;20068;-79
2021/10/12 02:14:45;;;;;;;16.27;3.65;;;;;;;;;;5054717;28;20044;-77
2021/10/12 02:17:10;;;;;;;17.58;3.90;;;;;;;;;;5054249;28;20021;-78
2021/10/12 02:19:35;;;;;;;14.30;3.50;;;;;;;;;;5054479;28;20036;-77
2021/10/12 02:22:01;;;;;;;11.38;3.35;;;;;;;;;;5052891;28;20036;-78
2021/10/12 02:24:26;;;;;;;9.75;3.05;;;;;;;;;;5054013;28;20488;-78
2021/10/12 02:26:51;;;;;;;10.35;3.22;;;;;;;;;;5053979;28;20090;-78
2021/10/12 02:29:17;;;;;;;7.75;2.90;;;;;;;;;;5053900;28;20032;-78
2021/10/12 02:31:42;;;;;;;15.82;3.40;;;;;;;;;;5054089;28;20096;-79
2021/10/12 02:34:07;;;;;;;17.20;3.40;;;;;;;;;;5054178;28;20481;-78
2021/10/12 02:36:33;;;;;;;24.15;3.85;;;;;;;;;;5054246;28;20049;-78
2021/10/12 02:38:58;;;;;;;16.65;3.33;;;;;;;;;;5054038;28;20047;-78
2021/10/12 02:41:23;;;;;;;14.75;3.45;;;;;;;;;;5054130;28;20040;-78
2021/10/12 02:43:49;;;;;;;20.08;3.70;;;;;;;;;;5054099;28;20064;-78
2021/10/12 02:46:14;;;;;;;13.90;3.85;;;;;;;;;;5053848;28;20087;-78
2021/10/12 02:48:39;;;;;;;7.60;3.10;;;;;;;;;;5053565;28;20033;-79
2021/10/12 02:51:04;;;;;;;15.90;3.78;;;;;;;;;;5053869;28;20033;-79
2021/10/12 02:53:30;;;;;;;10.98;3.00;;;;;;;;;;5053904;28;20013;-78
2021/10/12 02:55:55;;;;;;;12.48;3.88;;;;;;;;;;5053564;28;20112;-79
2021/10/12 02:58:20;;;;;;;8.43;3.45;;;;;;;;;;5053757;28;20488;-77
2021/10/12 03:00:46;;;;;;;11.02;3.00;;;;;;;;;;5053593;28;20019;-78
2021/10/12 03:03:11;;;;;;;17.00;3.40;;;;;;;;;;5053672;28;20025;-78
2021/10/12 03:05:37;;;;;;;10.90;3.17;;;;;;;;;;5053648;28;20374;-77
2021/10/12 03:08:02;;;;;;;13.98;3.10;;;;;;;;;;5053638;28;20032;-78
2021/10/12 03:10:27;;;;;;;13.90;3.35;;;;;;;;;;5053379;28;20033;-78
2021/10/12 03:12:53;;;;;;;7.30;3.17;;;;;;;;;;5053593;28;20040;-77
2021/10/12 03:15:18;;;;;;;17.05;3.70;;;;;;;;;;5053676;28;20377;-79
2021/10/12 03:17:43;;;;;;;18.52;3.10;;;;;;;;;;5053686;28;20049;-78
2021/10/12 03:20:09;;;;;;;14.23;2.72;;;;;;;;;;5053411;28;20107;-78
2021/10/12 03:22:34;;;;;;;18.45;3.17;;;;;;;;;;5053454;28;20355;-78
2021/10/12 03:24:59;;;;;;;16.27;3.15;;;;;;;;;;5052855;28;20124;-78
2021/10/12 03:27:25;;;;;;;11.60;3.20;;;;;;;;;;5052835;28;20470;-77
2021/10/12 03:29:50;;;;;;;8.85;2.60;;;;;;;;;;5053335;28;20024;-78
2021/10/12 03:32:15;;;;;;;17.95;3.22;;;;;;;;;;5053214;28;20025;-78
2021/10/12 03:34:41;;;;;;;14.68;2.97;;;;;;;;;;5053155;28;20049;-78
2021/10/12 03:37:06;;;;;;;15.63;3.25;;;;;;;;;;5053582;28;20049;-79
2021/10/12 03:39:32;;;;;;;11.57;2.90;;;;;;;;;;5053335;28;20075;-78
2021/10/12 03:41:57;;;;;;;9.57;2.97;;;;;;;;;;5053133;28;20482;-78
2021/10/12 03:44:23;;;;;;;15.85;3.00;;;;;;;;;;5052952;28;20454;-78
2021/10/12 03:46:49;;;;;;;10.77;3.33;;;;;;;;;;5053126;28;20041;-78
2021/10/12 03:49:14;;;;;;;10.00;2.75;;;;;;;;;;5053198;28;20071;-78
2021/10/12 03:51:43;;;;;;;10.73;3.40;;;;;;;;;;5053071;28;20016;-78
2021/10/12 03:54:12;;;;;;;11.82;2.78;;;;;;;;;;5053051;28;20075;-78
2021/10/12 03:56:38;;;;;;;18.98;3.17;;;;;;;;;;5052954;28;20486;-77
2021/10/12 03:59:03;;;;;;;13.27;3.30;;;;;;;;;;5053353;28;20028;-78
2021/10/12 04:01:28;;;;;;;14.48;2.80;;;;;;;;;;5057374;28;20036;-78
2021/10/12 04:03:54;;;;;;;9.45;2.80;;;;;;;;;;5057333;28;20037;-78
2021/10/12 04:06:20;;;;;;;11.68;2.80;;;;;;;;;;5056937;28;20033;-77
2021/10/12 04:08:45;;;;;;;14.85;3.20;;;;;;;;;;5055634;28;20094;-78
2021/10/12 04:11:10;;;;;;;12.02;2.67;;;;;;;;;;5056957;28;20067;-78
2021/10/12 04:13:35;;;;;;;13.10;2.80;;;;;;;;;;5056856;28;20013;-78
2021/10/12 04:16:01;;;;;;;8.27;2.92;;;;;;;;;;5056460;28;20067;-78
2021/10/12 04:18:26;;;;;;;19.02;2.47;;;;;;;;;;5056804;28;20386;-78
2021/10/12 04:20:51;;;;;;;19.05;3.17;;;;;;;;;;5056465;28;20024;-78
2021/10/12 04:23:17;;;;;;;16.55;3.03;;;;;;;;;;5056275;28;20029;-78
2021/10/12 04:25:42;;;;;;;11.80;2.65;;;;;;;;;;5056403;28;20155;-77
2021/10/12 04:28:12;;;;;;;14.00;3.33;;;;;;;;;;5055571;28;20021;-78
2021/10/12 04:30:44;;;;;;;16.27;2.92;;;;;;;;;;5056548;28;20025;-78
2021/10/12 04:33:09;;;;;;;7.07;2.58;;;;;;;;;;5056411;28;20043;-78
2021/10/12 04:35:34;;;;;;;12.68;2.55;;;;;;;;;;5056007;28;20049;-77
2021/10/12 04:38:00;;;;;;;22.45;2.92;;;;;;;;;;5056296;28;20025;-78
2021/10/12 04:40:25;;;;;;;7.45;2.60;;;;;;;;;;5056317;28;20044;-77
2021/10/12 04:42:51;;;;;;;12.50;2.42;;;;;;;;;;5056341;28;20025;-77
2021/10/12 04:45:16;;;;;;;13.57;2.95;;;;;;;;;;5056206;28;20051;-77
2021/10/12 04:47:41;;;;;;;8.10;2.42;;;;;;;;;;5056306;28;20067;-78
2021/10/12 04:50:07;;;;;;;7.68;2.67;;;;;;;;;;5056202;28;20107;-78
2021/10/12 04:52:32;;;;;;;8.63;3.10;;;;;;;;;;5055849;28;20450;-78
2021/10/12 04:54:58;;;;;;;8.43;2.40;;;;;;;;;;5056282;28;20040;-79
2021/10/12 04:57:23;;;;;;;11.68;2.42;;;;;;;;;;5056179;28;20032;-78
2021/10/12 04:59:48;;;;;;;10.35;2.42;;;;;;;;;;5056049;28;20449;-78
2021/10/12 05:02:13;;;;;;;9.07;2.30;;;;;;;;;;5055987;28;20397;-77
2021/10/12 05:04:39;;;;;;;11.10;2.50;;;;;;;;;;5055858;28;20052;-79
2021/10/12 05:07:04;;;;;;;16.58;2.53;;;;;;;;;;5055938;28;20021;-78
2021/10/12 05:09:29;;;;;;;11.15;2.35;;;;;;;;;;5055666;28;20044;-77
2021/10/12 05:11:54;;;;;;;11.02;2.17;;;;;;;;;;5055615;28;20078;-77
2021/10/12 05:14:20;;;;;;;6.18;2.40;;;;;;;;;;5055769;28;20017;-77
2021/10/12 05:16:45;;;;;;;14.35;2.60;;;;;;;;;;5055754;28;20473;-78
2021/10/12 05:19:11;;;;;;;12.65;2.80;;;;;;;;;;5055644;28;20029;-78
2021/10/12 05:21:36;;;;;;;10.77;2.30;;;;;;;;;;5055343;28;20021;-77
2021/10/12 05:24:01;;;;;;;20.98;2.85;;;;;;;;;;5055580;28;20086;-78
2021/10/12 05:26:26;;;;;;;12.88;2.55;;;;;;;;;;5055874;28;20041;-78
2021/10/12 05:28:53;;;;;;;9.57;2.30;;;;;;;;;;5055505;28;20449;-78
2021/10/12 05:31:19;;;;;;;12.10;2.33;;;;;;;;;;5055756;28;20123;-78
2021/10/12 05:33:45;;;;;;;18.50;2.65;;;;;;;;;;5055098;28;20436;-78
2021/10/12 05:36:11;;;;;;;12.10;2.30;;;;;;;;;;5054737;28;20049;-79
2021/10/12 05:38:36;;;;;;;11.82;3.10;;;;;;;;;;5055105;28;20090;-79
2021/10/12 05:41:01;;;;;;;14.38;2.30;;;;;;;;;;5055304;28;20448;-78
2021/10/12 05:43:27;;;;;;;10.05;2.10;;;;;;;;;;5055130;28;20086;-77
2021/10/12 05:45:52;;;;;;;10.30;2.90;;;;;;;;;;5055299;28;20041;-78
2021/10/12 05:48:18;;;;;;;8.13;2.60;;;;;;;;;;5055116;28;20082;-78
2021/10/12 05:50:45;;;;;;;7.93;2.38;;;;;;;;;;5055196;28;20013;-78
2021/10/12 05:56:00;;;;;;;11.50;2.50;;;;;;;;;;5054707;28;20572;-78
2021/10/12 06:00:57;;;;;;;6.72;2.38;;;;;;;;;;5054873;28;20037;-78
2021/10/12 06:03:23;;;;;;;13.73;2.28;;;;;;;;;;5054660;28;20036;-79
2021/10/12 06:05:49;;;;;;;9.48;2.20;;;;;;;;;;5054798;28;20116;-78
2021/10/12 06:08:14;;;;;;;9.98;3.25;;;;;;;;;;5054437;28;20057;-78
2021/10/12 06:10:40;;;;;;;8.07;3.25;;;;;;;;;;5054379;28;20071;-78
2021/10/12 06:13:09;;;;;;;9.05;3.28;;;;;;;;;;5054668;28;20025;-78
2021/10/12 06:15:35;;;;;;;14.88;3.03;;;;;;;;;;5054666;28;20059;-77
2021/10/12 06:18:00;;;;;;;6.75;2.95;;;;;;;;;;5052881;28;20033;-79
2021/10/12 06:20:26;;;;;;;9.57;3.00;;;;;;;;;;5054465;28;20024;-78
2021/10/12 06:22:51;;;;;;;11.82;3.17;;;;;;;;;;5053389;28;20081;-78
2021/10/12 06:25:16;;;;;;;12.27;3.15;;;;;;;;;;5052953;28;20102;-78
2021/10/12 06:27:43;;;;;;;16.27;3.03;;;;;;;;;;5054214;28;20013;-78
2021/10/12 06:30:08;;;;;;;12.32;3.22;;;;;;;;;;5054575;28;20025;-78
2021/10/12 06:32:34;;;;;;;7.00;2.88;;;;;;;;;;5054104;28;20108;-78
2021/10/12 06:34:59;;;;;;;11.05;2.55;;;;;;;;;;5054107;28;20366;-77
2021/10/12 06:37:24;;;;;;;9.65;2.80;;;;;;;;;;5054177;28;20359;-77
2021/10/12 06:39:50;;;;;;;9.93;2.20;;;;;;;;;;5054091;28;20028;-78
2021/10/12 06:42:15;;;;;;;10.82;2.42;;;;;;;;;;5053946;28;20071;-77
2021/10/12 06:44:40;;;;;;;14.02;2.33;;;;;;;;;;5053964;28;20033;-78
2021/10/12 06:47:06;;;;;;;12.85;2.80;;;;;;;;;;5053579;28;20033;-78
2021/10/12 06:49:31;;;;;;;9.20;2.33;;;;;;;;;;5053441;28;20159;-77
2021/10/12 06:51:56;;;;;;;13.80;2.22;;;;;;;;;;5053166;28;20393;-77
2021/10/12 06:54:21;;;;;;;5.35;2.15;;;;;;;;;;5053020;28;20036;-77
2021/10/12 06:56:48;;;;;;;9.18;2.35;;;;;;;;;;5053358;28;20096;-78
2021/10/12 06:59:14;;;;;;;13.02;2.60;;;;;;;;;;5053145;28;20029;-78
2021/10/12 07:01:39;;;;;;;22.40;2.88;;;;;;;;;;5053332;28;20035;-78
2021/10/12 07:04:04;;;;;;;9.52;2.47;;;;;;;;;;5052725;28;20044;-79
2021/10/12 07:06:30;;;;;;;13.93;2.30;;;;;;;;;;5052860;28;20072;-78
2021/10/12 07:08:55;;;;;;;13.05;2.80;;;;;;;;;;5053333;28;20377;-78
2021/10/12 07:11:21;;;;;;;15.35;2.72;;;;;;;;;;5052968;28;20035;-78
2021/10/12 07:13:47;;;;;;;10.35;2.83;;;;;;;;;;5052766;28;20129;-78
2021/10/12 07:16:13;;;;;;;11.95;2.22;;;;;;;;;;5053259;28;20492;-78
2021/10/12 07:18:38;;;;;;;10.00;2.72;;;;;;;;;;5053328;28;20103;-79
2021/10/12 07:21:03;;;;;;;11.60;2.13;;;;;;;;;;5053492;28;20539;-78
2021/10/12 07:23:28;;;;;;;16.52;2.90;;;;;;;;;;5053762;28;20032;-78
2021/10/12 07:25:54;;;;;;;8.75;2.80;;;;;;;;;;5053437;28;20104;-78
2021/10/12 07:28:19;;;;;;;9.77;2.25;;;;;;;;;;5053396;28;20036;-78
2021/10/12 07:30:44;;;;;;;74.57;6.50;;;;;;;;;;5053448;28;20028;-76
2021/10/12 07:33:10;;;;;;;442.10;24.02;;;;;;;;;;5053197;28;20025;-77
2021/10/12 07:35:35;;;;;;;403.95;23.50;;;;;;;;;;5053268;28;20060;-77
2021/10/12 07:38:01;;;;;;;470.65;29.98;;;;;;;;;;5053160;28;20029;-77
2021/10/12 07:40:26;;;;;;;14.60;3.22;;;;;;;;;;5053317;28;20028;-77
2021/10/12 07:42:52;;;;;;;35.70;4.20;;;;;;;;;;5053324;28;20033;-77
2021/10/12 07:45:17;;;;;;;44.03;5.65;;;;;;;;;;5068110;28;20040;-77
2021/10/12 07:47:42;;;;;;;91.50;6.55;;;;;;;;;;5046890;28;20760;-80
2021/10/12 07:50:08;;;;;;;133.68;8.77;;;;;;;;;;5049815;28;20045;-79
2021/10/12 07:52:33;;;;;;;349.75;22.45;;;;;;;;;;5055072;28;20032;-80
2021/10/12 07:55:45;;;;;;;176.30;9.63;;;;;;;;;;5051053;28;20103;-79
2021/10/12 07:57:47;;;;;;;15.38;2.70;;;;;;;;;;5040916;28;20498;-80
2021/10/12 08:00:13;;;;;;;56.13;5.45;;;;;;;;;;5069233;28;20036;-79
2021/10/12 08:02:38;;;;;;;29.58;3.00;;;;;;;;;;5059305;28;20426;-81
2021/10/12 08:05:04;;;;;;;140.75;9.07;;;;;;;;;;5053230;28;20132;-80
2021/10/12 08:07:29;;;;;;;11.52;3.33;;;;;;;;;;5049243;28;20040;-79
2021/10/12 08:09:56;;;;;;;20.75;2.63;;;;;;;;;;5048742;28;20029;-80
2021/10/12 08:12:22;;;;;;;7.68;2.90;;;;;;;;;;5042206;28;20051;-79
2021/10/12 08:14:54;;;;;;;10.32;3.38;;;;;;;;;;5048327;28;20036;-78
2021/10/12 08:17:19;;;;;;;9.68;2.80;;;;;;;;;;5047631;28;20036;-79
2021/10/12 08:19:44;;;;;;;10.38;2.67;;;;;;;;;;5048534;28;20508;-79
2021/10/12 08:22:09;;;;;;;4.22;1.33;;;;;;;;;;5048005;28;20033;-79
2021/10/12 08:24:35;;;;;;;6.22;1.88;;;;;;;;;;5047065;28;20527;-78
2021/10/12 08:27:00;;;;;;;6.30;1.77;;;;;;;;;;5047751;28;20043;-79
2021/10/12 08:29:27;;;;;;;6.00;2.17;;;;;;;;;;5043951;28;20063;-79
2021/10/12 08:31:52;;;;;;;5.53;1.50;;;;;;;;;;5047663;28;20029;-80
2021/10/12 08:34:17;;;;;;;13.52;1.92;;;;;;;;;;5048761;28;20017;-79
2021/10/12 08:36:42;;;;;;;4.60;1.70;;;;;;;;;;5048779;28;20041;-79
2021/10/12 08:39:08;;;;;;;4.15;1.40;;;;;;;;;;5048488;28;20037;-79
2021/10/12 08:41:41;;;;;;;9.02;1.92;;;;;;;;;;5048189;28;20453;-80
2021/10/12 08:44:07;;;;;;;3.25;1.25;;;;;;;;;;5048723;28;20099;-79
2021/10/12 08:46:34;;;;;;;5.60;1.48;;;;;;;;;;5051691;28;20124;-80
2021/10/12 08:49:00;;;;;;;6.28;1.45;;;;;;;;;;5052898;28;20021;-80
2021/10/12 08:51:26;;;;;;;6.80;1.88;;;;;;;;;;5051873;28;20029;-79
2021/10/12 08:53:52;;;;;;;5.25;1.48;;;;;;;;;;5052133;28;20043;-79
2021/10/12 08:56:17;;;;;;;7.30;1.65;;;;;;;;;;5052189;28;20013;-81
2021/10/12 08:58:43;;;;;;;11.65;2.22;;;;;;;;;;5052312;28;20044;-80
2021/10/12 09:01:09;;;;;;;11.80;2.00;;;;;;;;;;5052682;28;20037;-81
2021/10/12 09:06:26;;;;;;;6.65;1.40;;;;;;;;;;5052374;28;20052;-79
2021/10/12 09:08:55;;;;;;;6.22;1.77;;;;;;;;;;5052479;28;20146;-79
2021/10/12 09:11:21;;;;;;;7.20;1.90;;;;;;;;;;5052474;28;20071;-79
2021/10/12 09:13:48;;;;;;;7.13;1.58;;;;;;;;;;5052361;28;20096;-79
2021/10/12 09:16:17;;;;;;;7.97;1.73;;;;;;;;;;5052635;28;20052;-80
2021/10/12 09:18:49;;;;;;;4.35;1.25;;;;;;;;;;5051710;28;20382;-79
2021/10/12 09:21:33;;;;;;;7.03;1.63;;;;;;;;;;5052359;28;20021;-79
2021/10/12 09:24:03;;;;;;;8.27;1.67;;;;;;;;;;5052446;28;20024;-80
2021/10/12 09:26:32;;;;;;;9.32;1.77;;;;;;;;;;5051686;28;20064;-79
2021/10/12 09:28:58;;;;;;;5.05;1.42;;;;;;;;;;5052251;28;20032;-79
2021/10/12 09:31:34;;;;;;;8.93;1.42;;;;;;;;;;5052255;28;20112;-79
2021/10/12 09:34:03;;;;;;;10.65;1.70;;;;;;;;;;5052116;28;20021;-79
2021/10/12 09:36:30;;;;;;;7.15;1.58;;;;;;;;;;5051504;28;20114;-79
2021/10/12 09:38:57;;;;;;;7.72;1.10;;;;;;;;;;5051914;28;20432;-79
2021/10/12 09:41:23;;;;;;;8.73;1.70;;;;;;;;;;5051873;28;20036;-80
2021/10/12 09:43:49;;;;;;;7.47;1.70;;;;;;;;;;5052545;28;20033;-79
2021/10/12 09:46:30;;;;;;;6.57;1.40;;;;;;;;;;5051891;28;20033;-79
2021/10/12 09:49:07;;;;;;;5.85;1.50;;;;;;;;;;5051572;28;20269;-86
2021/10/12 09:51:33;;;;;;;9.18;1.70;;;;;;;;;;5051423;28;20021;-79
2021/10/12 09:53:58;;;;;;;5.10;1.27;;;;;;;;;;5051844;28;20040;-79
2021/10/12 09:56:23;;;;;;;4.40;1.42;;;;;;;;;;5052379;28;20039;-79
2021/10/12 09:58:49;;;;;;;6.05;1.48;;;;;;;;;;5052025;28;20104;-79
2021/10/12 10:01:14;;;;;;;4.55;1.30;;;;;;;;;;5051356;28;20031;-79
2021/10/12 10:03:39;;;;;;;6.65;1.73;;;;;;;;;;5051315;28;20025;-79
2021/10/12 10:06:09;;;;;;;6.20;1.40;;;;;;;;;;5051693;28;20029;-79
2021/10/12 10:08:36;;;;;;;8.57;1.60;;;;;;;;;;5051368;28;20124;-84
2021/10/12 10:11:03;;;;;;;4.35;1.35;;;;;;;;;;5047682;28;20032;-79
2021/10/12 10:13:32;;;;;;;7.22;1.40;;;;;;;;;;5050429;28;20029;-79
2021/10/12 10:15:57;;;;;;;6.10;1.38;;;;;;;;;;5050883;28;20135;-79
2021/10/12 10:18:22;;;;;;;8.65;0.90;;;;;;;;;;5050351;28;20147;-79
2021/10/12 10:20:53;;;;;;;11.13;1.60;;;;;;;;;;5050341;28;20013;-78
2021/10/12 10:23:37;;;;;;;6.82;1.23;;;;;;;;;;5048825;28;20527;-80
2021/10/12 10:26:21;;;;;;;4.40;1.13;;;;;;;;;;5050189;28;20040;-78
2021/10/12 10:28:46;;;;;;;3.42;0.75;;;;;;;;;;5049700;28;20064;-80
2021/10/12 10:31:11;;;;;;;5.18;1.02;;;;;;;;;;5050119;28;20083;-78
2021/10/12 10:33:37;;;;;;;5.55;1.33;;;;;;;;;;5050274;28;20531;-79
2021/10/12 10:36:03;;;;;;;173.77;15.02;;;;;;;;;;5049838;28;20136;-79
2021/10/12 10:38:30;;;;;;;15.70;1.58;;;;;;;;;;5049920;28;20059;-80
2021/10/12 10:41:04;;;;;;;5.15;1.10;;;;;;;;;;5049869;28;20090;-78
2021/10/12 10:43:47;;;;;;;1362.47;673.33;;;;;;;;;;5048380;28;20029;-78
2021/10/12 10:46:31;;;;;;;221.73;44.33;;;;;;;;;;5049930;28;20045;-78
2021/10/12 10:49:15;;;;;;;5.50;1.10;;;;;;;;;;5050177;28;20029;-79
2021/10/12 10:51:46;;;;;;;9.38;1.48;;;;;;;;;;5049524;28;20029;-78
2021/10/12 10:54:30;;;;;;;6.35;1.52;;;;;;;;;;5050496;28;20059;-78
2021/10/12 10:57:11;;;;;;;7.97;1.00;;;;;;;;;;5050273;28;20389;-80
2021/10/12 10:59:36;;;;;;;6.07;1.00;;;;;;;;;;5049829;28;20021;-79
2021/10/12 11:02:02;;;;;;;33.83;9.95;;;;;;;;;;5049480;28;20056;-79
2021/10/12 11:04:40;;;;;;;6.95;1.27;;;;;;;;;;5050234;28;20355;-78
2021/10/12 11:07:05;;;;;;;7.22;1.33;;;;;;;;;;5050320;28;20037;-78
2021/10/12 11:09:41;;;;;;;5.60;0.93;;;;;;;;;;5049430;28;20033;-80
2021/10/12 11:12:15;;;;;;;2.58;0.80;;;;;;;;;;5049414;28;20025;-78
2021/10/12 11:14:41;;;;;;;8.85;1.25;;;;;;;;;;5048640;28;20048;-79
2021/10/12 11:17:09;;;;;;;6.18;1.05;;;;;;;;;;5050181;28;20442;-78
2021/10/12 11:19:51;;;;;;;3.17;1.40;;;;;;;;;;5049629;28;20457;-79
2021/10/12 11:22:17;;;;;;;5.53;1.05;;;;;;;;;;5049231;28;20020;-79
2021/10/12 11:24:44;;;;;;;5.20;0.80;;;;;;;;;;5049796;28;20116;-79
2021/10/12 11:27:09;;;;;;;9.05;1.17;;;;;;;;;;5049582;28;20029;-79
2021/10/12 11:29:34;;;;;;;7.78;1.25;;;;;;;;;;5050227;28;20047;-78
2021/10/12 11:32:03;;;;;;;5.95;0.80;;;;;;;;;;5049886;28;20035;-81
2021/10/12 11:34:30;;;;;;;6.28;0.80;;;;;;;;;;5049254;28;20096;-79
2021/10/12 11:37:05;;;;;;;8.05;1.60;;;;;;;;;;5049584;28;20024;-78
2021/10/12 11:39:31;;;;;;;4.80;0.98;;;;;;;;;;5049237;28;20108;-78
2021/10/12 11:42:00;;;;;;;3.47;0.90;;;;;;;;;;5049594;28;20104;-78
2021/10/12 11:44:25;;;;;;;7.05;1.65;;;;;;;;;;5048794;28;20031;-79
2021/10/12 11:46:51;;;;;;;4.18;0.73;;;;;;;;;;5049644;28;20037;-79
2021/10/12 11:49:18;;;;;;;4.85;1.10;;;;;;;;;;5049780;28;20012;-78
2021/10/12 11:51:44;;;;;;;4.47;1.38;;;;;;;;;;5049314;28;20036;-78
2021/10/12 11:54:10;;;;;;;4.22;0.90;;;;;;;;;;5049604;28;20067;-80
2021/10/12 11:56:37;;;;;;;4.60;0.95;;;;;;;;;;5049486;28;20021;-78
2021/10/12 11:59:03;;;;;;;5.82;0.90;;;;;;;;;;5049076;28;20036;-79
2021/10/12 12:01:36;;;;;;;4.38;0.90;;;;;;;;;;5049955;28;20025;-79
2021/10/12 12:04:03;;;;;;;7.22;0.93;;;;;;;;;;5047853;28;20580;-79
2021/10/12 12:06:30;;;;;;;5.05;1.17;;;;;;;;;;5049161;28;20488;-80
2021/10/12 12:08:56;;;;;;;7.90;2.20;;;;;;;;;;5049309;28;20024;-78
2021/10/12 12:11:24;;;;;;;7.57;1.23;;;;;;;;;;5049937;28;20020;-78
2021/10/12 12:13:49;;;;;;;8.68;1.77;;;;;;;;;;5050158;28;20033;-78
2021/10/12 12:16:16;;;;;;;3.75;1.08;;;;;;;;;;5049438;28;20025;-78
2021/10/12 12:18:42;;;;;;;5.82;1.13;;;;;;;;;;5049782;28;20021;-79
2021/10/12 12:21:07;;;;;;;2.63;0.60;;;;;;;;;;5051486;28;20082;-78
2021/10/12 12:23:38;;;;;;;4.18;0.93;;;;;;;;;;5052826;28;20021;-78
2021/10/12 12:26:04;;;;;;;3.75;0.88;;;;;;;;;;5053393;28;20068;-78
2021/10/12 12:28:30;;;;;;;6.90;1.63;;;;;;;;;;5053119;28;20036;-78
2021/10/12 12:30:55;;;;;;;8.77;1.10;;;;;;;;;;5053374;28;20070;-78
2021/10/12 12:33:21;;;;;;;6.88;1.00;;;;;;;;;;5052910;28;20025;-78
2021/10/12 12:35:47;;;;;;;6.47;1.10;;;;;;;;;;5052647;28;20088;-78
2021/10/12 12:38:29;;;;;;;2.10;0.80;;;;;;;;;;5052946;28;20025;-78
2021/10/12 12:40:55;;;;;;;1.98;0.73;;;;;;;;;;5051340;28;20086;-78
2021/10/12 12:43:30;;;;;;;3.78;1.02;;;;;;;;;;5052298;28;20025;-78
2021/10/12 12:46:06;;;;;;;4.82;0.88;;;;;;;;;;5052302;28;20166;-78
2021/10/12 12:48:31;;;;;;;6.70;1.10;;;;;;;;;;5052992;28;20033;-78
2021/10/12 12:51:00;;;;;;;3.03;0.80;;;;;;;;;;5052420;28;20104;-78
2021/10/12 12:53:38;;;;;;;4.85;0.90;;;;;;;;;;5052293;28;20061;-79
2021/10/12 12:56:08;;;;;;;4.75;0.90;;;;;;;;;;5052266;28;20068;-79
2021/10/12 12:58:37;;;;;;;4.30;1.00;;;;;;;;;;5052114;28;20033;-79
2021/10/12 13:01:02;;;;;;;3.22;0.75;;;;;;;;;;5052603;28;20029;-79
2021/10/12 13:03:28;;;;;;;4.57;1.10;;;;;;;;;;5052591;28;20040;-79
2021/10/12 13:05:53;;;;;;;3.25;1.00;;;;;;;;;;5051787;28;20065;-78
2021/10/12 13:08:18;;;;;;;4.72;0.90;;;;;;;;;;5052390;28;20439;-77
2021/10/12 13:10:44;;;;;;;5.00;1.05;;;;;;;;;;5053035;28;20029;-80
2021/10/12 13:13:09;;;;;;;3.28;0.73;;;;;;;;;;5052806;28;20029;-78
2021/10/12 13:15:34;;;;;;;6.43;1.00;;;;;;;;;;5052564;28;20482;-79
2021/10/12 13:18:00;;;;;;;3.83;0.82;;;;;;;;;;5052505;28;20033;-78
2021/10/12 13:20:25;;;;;;;3.10;0.88;;;;;;;;;;5052242;28;20112;-78
2021/10/12 13:22:50;;;;;;;3.80;0.70;;;;;;;;;;5052115;28;20100;-79
2021/10/12 13:25:15;;;;;;;5.18;1.20;;;;;;;;;;5052745;28;20028;-78
2021/10/12 13:27:41;;;;;;;6.05;1.00;;;;;;;;;;5052090;28;20087;-77
2021/10/12 13:30:06;;;;;;;5.38;1.02;;;;;;;;;;5051916;28;20054;-77
2021/10/12 13:32:32;;;;;;;6.00;1.00;;;;;;;;;;5051258;28;20045;-78
2021/10/12 13:34:57;;;;;;;2.28;1.10;;;;;;;;;;5051103;28;20052;-77
2021/10/12 13:37:23;;;;;;;2.33;0.90;;;;;;;;;;5052324;28;20108;-82
2021/10/12 13:39:49;;;;;;;6.00;1.27;;;;;;;;;;5045944;28;20025;-78
2021/10/12 13:42:14;;;;;;;5.63;0.80;;;;;;;;;;5051500;28;20044;-77
2021/10/12 13:44:40;;;;;;;2.45;0.85;;;;;;;;;;5050342;28;20025;-79
2021/10/12 13:47:09;;;;;;;3.97;0.82;;;;;;;;;;5050221;28;20124;-77
2021/10/12 13:49:34;;;;;;;6.55;0.90;;;;;;;;;;5051187;28;20040;-78
2021/10/12 13:52:00;;;;;;;4.25;0.95;;;;;;;;;;5050882;28;20016;-78
2021/10/12 13:54:25;;;;;;;3.92;0.80;;;;;;;;;;5051296;28;20029;-78
2021/10/12 13:56:51;;;;;;;2.95;0.80;;;;;;;;;;5051054;28;20382;-78
2021/10/12 13:59:17;;;;;;;7.22;1.35;;;;;;;;;;5045707;28;20347;-80
2021/10/12 14:01:42;;;;;;;2.58;0.80;;;;;;;;;;5047941;28;20036;-78
2021/10/12 14:04:07;;;;;;;5.32;1.45;;;;;;;;;;5051216;28;20033;-79
2021/10/12 14:06:32;;;;;;;3.67;1.05;;;;;;;;;;5051347;28;20482;-78
2021/10/12 14:08:58;;;;;;;2.88;0.98;;;;;;;;;;5050899;28;20079;-79
2021/10/12 14:11:23;;;;;;;3.63;0.95;;;;;;;;;;5050841;28;20035;-78
2021/10/12 14:13:48;;;;;;;3.22;0.88;;;;;;;;;;5050707;28;20528;-78
2021/10/12 14:16:13;;;;;;;4.00;1.35;;;;;;;;;;5050703;28;20025;-79
2021/10/12 14:18:39;;;;;;;2.85;0.80;;;;;;;;;;5050458;28;20123;-79
2021/10/12 14:21:04;;;;;;;10.50;1.42;;;;;;;;;;5050618;28;20028;-78
2021/10/12 14:23:29;;;;;;;6.80;1.33;;;;;;;;;;5051038;28;20453;-78
2021/10/12 14:25:55;;;;;;;7.30;0.70;;;;;;;;;;5050196;28;20033;-78
2021/10/12 14:28:20;;;;;;;7.50;1.40;;;;;;;;;;5050213;28;20021;-78
2021/10/12 14:30:46;;;;;;;1.95;0.70;;;;;;;;;;5050207;28;20033;-79
2021/10/12 14:33:12;;;;;;;2.65;0.70;;;;;;;;;;5050215;28;20044;-78
2021/10/12 14:35:37;;;;;;;3.10;0.95;;;;;;;;;;5050292;28;20060;-77
2021/10/12 14:38:03;;;;;;;3.80;0.90;;;;;;;;;;5050741;28;20389;-77
2021/10/12 14:40:28;;;;;;;2.30;0.90;;;;;;;;;;5048876;28;20485;-77